Time;durP1;ratioP1;P1;durP2;ratioP2;P2;SDS_P1;SDS_P2;PMS_P1;PMS_P2;Temp;Humidity;BMP_temperature;BMP_pressure;BME280_temperature;BME280_humidity;BME280_pressure;Samples;Min_cycle;Max_cycle;Signal;HPM_P1;HPM_P2
2023/07/04 00:02:25;;;;;;;13.27;7.53;;;22.80;99.90;;;;;;5013570;28;20057;-51
2023/07/04 00:05:29;;;;;;;14.40;7.53;;;22.80;99.90;;;;;;5013895;28;20045;-51
2023/07/04 00:08:33;;;;;;;21.80;7.95;;;22.80;99.90;;;;;;5013823;28;20413;-52
2023/07/04 00:11:38;;;;;;;15.38;8.07;;;22.80;99.90;;;;;;5013559;28;20049;-51
2023/07/04 00:14:44;;;;;;;14.25;7.22;;;22.90;99.90;;;;;;5013437;28;20048;-51
2023/07/04 00:17:50;;;;;;;15.15;8.23;;;22.90;99.90;;;;;;5013283;28;20056;-53
2023/07/04 00:20:56;;;;;;;17.20;7.85;;;23.00;99.90;;;;;;5013420;28;20053;-54
2023/07/04 00:24:01;;;;;;;17.75;7.40;;;23.00;99.90;;;;;;5013040;28;20045;-51
2023/07/04 00:27:05;;;;;;;15.25;7.40;;;22.90;99.90;;;;;;5013001;28;20048;-52
2023/07/04 00:30:12;;;;;;;15.48;7.53;;;23.00;99.90;;;;;;5012304;28;20044;-52
2023/07/04 00:33:16;;;;;;;15.30;7.28;;;22.90;99.90;;;;;;5012854;28;20041;-51
2023/07/04 00:36:21;;;;;;;16.65;7.47;;;22.90;99.90;;;;;;5013015;28;20045;-51
2023/07/04 00:39:26;;;;;;;17.00;7.50;;;22.90;99.90;;;;;;5000658;28;20061;-51
2023/07/04 00:42:34;;;;;;;17.98;7.85;;;22.90;99.90;;;;;;5012323;28;20045;-52
2023/07/04 00:45:52;;;;;;;17.38;7.55;;;22.90;99.90;;;;;;5000628;28;20049;-50
2023/07/04 00:48:57;;;;;;;16.02;7.80;;;22.80;99.90;;;;;;5012537;28;20412;-54
2023/07/04 00:52:08;;;;;;;19.83;8.55;;;22.80;99.90;;;;;;5012566;28;20048;-52
2023/07/04 00:55:12;;;;;;;11.43;6.65;;;22.70;99.90;;;;;;5012969;28;20053;-51
2023/07/04 00:58:17;;;;;;;14.55;7.70;;;22.70;99.90;;;;;;5012323;28;20041;-55
2023/07/04 01:01:21;;;;;;;17.90;7.95;;;22.60;99.90;;;;;;5012821;28;20052;-51
2023/07/04 01:04:26;;;;;;;17.25;7.53;;;22.60;99.90;;;;;;5012508;28;20052;-53
2023/07/04 01:07:32;;;;;;;14.68;7.53;;;22.50;99.90;;;;;;5012432;28;20048;-55
2023/07/04 01:10:43;;;;;;;15.77;7.60;;;22.40;99.90;;;;;;5012066;28;20492;-54
2023/07/04 01:13:47;;;;;;;14.23;8.30;;;22.30;99.90;;;;;;5012562;28;20050;-55
2023/07/04 01:16:55;;;;;;;12.63;7.93;;;22.20;99.90;;;;;;5000279;28;20049;-52
2023/07/04 01:20:00;;;;;;;17.00;8.27;;;22.20;99.90;;;;;;5000237;28;20424;-52
2023/07/04 01:23:21;;;;;;;14.02;7.90;;;22.10;99.90;;;;;;5011950;28;20408;-55
2023/07/04 01:26:38;;;;;;;18.65;9.02;;;22.00;99.90;;;;;;5012100;28;20041;-52
2023/07/04 01:29:43;;;;;;;20.73;9.45;;;21.90;99.90;;;;;;5012080;28;20292;-54
2023/07/04 01:32:52;;;;;;;18.10;8.68;;;21.90;99.90;;;;;;4999677;28;20052;-51
2023/07/04 01:35:56;;;;;;;17.17;8.90;;;21.80;99.90;;;;;;5012159;28;20493;-53
2023/07/04 01:39:00;;;;;;;17.92;9.10;;;21.70;99.90;;;;;;5011592;28;20053;-52
2023/07/04 01:42:05;;;;;;;18.23;9.23;;;21.70;99.90;;;;;;5010964;28;20060;-52
2023/07/04 01:45:10;;;;;;;20.27;8.77;;;21.60;99.90;;;;;;5010416;28;20053;-55
2023/07/04 01:48:15;;;;;;;24.80;9.25;;;21.60;99.90;;;;;;5011323;28;20052;-51
2023/07/04 01:51:25;;;;;;;16.58;9.50;;;21.60;99.90;;;;;;4999038;28;20056;-51
2023/07/04 01:54:30;;;;;;;18.52;9.15;;;21.60;99.90;;;;;;4999368;28;20096;-51
2023/07/04 01:57:34;;;;;;;22.50;9.02;;;21.70;99.90;;;;;;4998815;28;20049;-52
2023/07/04 02:00:39;;;;;;;16.08;8.88;;;21.60;99.90;;;;;;4999170;28;20061;-54
2023/07/04 02:03:43;;;;;;;15.88;8.77;;;21.60;99.90;;;;;;5010972;28;20610;-51
2023/07/04 02:06:48;;;;;;;16.02;8.27;;;21.60;99.90;;;;;;5011382;28;20044;-52
2023/07/04 02:09:52;;;;;;;18.60;9.10;;;21.60;99.90;;;;;;4998854;28;20045;-52
2023/07/04 02:12:56;;;;;;;13.07;7.97;;;21.60;99.90;;;;;;5010603;28;20037;-52
2023/07/04 02:16:00;;;;;;;16.48;8.45;;;21.70;99.90;;;;;;4998957;28;20045;-53
2023/07/04 02:19:03;;;;;;;17.08;8.88;;;21.70;99.90;;;;;;5010910;28;20041;-50
2023/07/04 02:22:07;;;;;;;16.55;8.10;;;21.70;99.90;;;;;;5010395;28;20033;-51
2023/07/04 02:25:11;;;;;;;16.83;7.60;;;21.60;99.90;;;;;;4998619;28;20044;-52
2023/07/04 02:28:15;;;;;;;23.35;8.82;;;21.60;99.90;;;;;;5010763;28;20515;-51
2023/07/04 02:31:19;;;;;;;23.23;8.70;;;21.50;99.90;;;;;;5010589;28;20041;-51
2023/07/04 02:34:23;;;;;;;18.08;7.70;;;21.50;99.90;;;;;;5010909;28;20404;-51
2023/07/04 02:37:27;;;;;;;15.93;8.18;;;21.40;99.90;;;;;;4998718;28;20048;-51
2023/07/04 02:40:32;;;;;;;17.20;8.07;;;21.30;99.90;;;;;;4998332;28;20151;-52
2023/07/04 02:43:37;;;;;;;18.33;8.52;;;21.30;99.90;;;;;;5010388;28;20045;-55
2023/07/04 02:46:41;;;;;;;19.52;9.10;;;21.30;99.90;;;;;;4998293;28;20056;-53
2023/07/04 02:49:46;;;;;;;17.02;7.78;;;21.30;99.90;;;;;;4998012;28;20044;-51
2023/07/04 02:52:50;;;;;;;19.35;8.40;;;21.20;99.90;;;;;;4998342;28;20045;-51
2023/07/04 02:55:55;;;;;;;19.85;8.32;;;21.20;99.90;;;;;;5010501;28;20524;-51
2023/07/04 02:59:02;;;;;;;14.85;7.90;;;21.10;99.90;;;;;;4998118;28;20049;-51
2023/07/04 03:02:06;;;;;;;20.35;9.05;;;20.90;99.90;;;;;;5010159;28;20065;-52
2023/07/04 03:05:10;;;;;;;20.58;8.50;;;20.70;99.90;;;;;;5009870;28;20057;-51
2023/07/04 03:08:16;;;;;;;15.73;8.73;;;20.50;99.90;;;;;;5009372;28;20064;-51
2023/07/04 03:11:20;;;;;;;13.35;8.30;;;20.40;99.90;;;;;;4997912;28;20113;-55
2023/07/04 03:14:25;;;;;;;19.98;8.70;;;20.30;99.90;;;;;;5009845;28;20045;-55
2023/07/04 03:17:30;;;;;;;15.68;8.55;;;20.20;99.90;;;;;;4998004;28;20045;-51
2023/07/04 03:20:34;;;;;;;20.73;8.82;;;20.00;99.90;;;;;;5009032;28;20045;-55
2023/07/04 03:23:38;;;;;;;17.25;9.20;;;19.90;99.90;;;;;;5009095;28;20048;-53
2023/07/04 03:26:45;;;;;;;18.35;9.65;;;19.80;99.90;;;;;;4998073;28;20041;-50
2023/07/04 03:29:50;;;;;;;19.13;9.35;;;19.70;99.90;;;;;;4997711;28;20044;-55
2023/07/04 03:32:55;;;;;;;19.75;10.68;;;19.60;99.90;;;;;;5000085;28;20060;-54
2023/07/04 03:35:59;;;;;;;18.23;10.18;;;19.40;99.90;;;;;;5014194;28;20045;-52
2023/07/04 03:39:04;;;;;;;19.35;9.68;;;19.40;99.90;;;;;;5001580;28;20113;-51
2023/07/04 03:42:08;;;;;;;17.48;9.95;;;19.30;99.90;;;;;;5001675;28;20029;-51
2023/07/04 03:45:12;;;;;;;20.00;10.15;;;19.30;99.90;;;;;;5001802;28;20041;-50
2023/07/04 03:48:17;;;;;;;23.30;11.10;;;19.30;99.90;;;;;;5013753;28;20045;-55
2023/07/04 03:51:22;;;;;;;25.48;11.35;;;19.40;99.90;;;;;;5001387;28;20053;-51
2023/07/04 03:54:26;;;;;;;22.00;11.00;;;19.40;99.90;;;;;;5013824;28;20528;-51
2023/07/04 03:57:30;;;;;;;16.50;10.45;;;19.40;99.90;;;;;;5013886;28;20516;-51
2023/07/04 04:00:34;;;;;;;23.02;12.15;;;19.40;99.90;;;;;;5001490;28;20065;-55
2023/07/04 04:03:38;;;;;;;24.63;11.88;;;19.40;99.90;;;;;;5013536;28;20413;-51
2023/07/04 04:06:42;;;;;;;22.67;10.85;;;19.50;99.90;;;;;;5013430;28;20118;-51
2023/07/04 04:09:46;;;;;;;19.15;11.70;;;19.60;99.90;;;;;;5013475;28;20040;-54
2023/07/04 04:12:50;;;;;;;22.08;12.07;;;19.60;99.90;;;;;;5013119;28;20041;-55
2023/07/04 04:15:54;;;;;;;21.95;10.75;;;19.70;99.90;;;;;;5013492;28;20040;-52
2023/07/04 04:18:58;;;;;;;22.67;12.40;;;19.80;99.90;;;;;;5013199;28;20049;-55
2023/07/04 04:22:04;;;;;;;20.05;11.95;;;19.80;99.90;;;;;;5013119;28;20057;-54
2023/07/04 04:25:08;;;;;;;29.13;12.00;;;19.80;99.90;;;;;;5013274;28;20041;-50
2023/07/04 04:28:12;;;;;;;18.20;11.93;;;19.80;99.90;;;;;;5013499;28;20064;-53
2023/07/04 04:31:17;;;;;;;19.63;10.40;;;19.80;99.90;;;;;;5011308;28;20044;-51
2023/07/04 04:34:22;;;;;;;17.65;9.38;;;20.40;99.90;;;;;;5013308;28;20536;-51
2023/07/04 04:37:27;;;;;;;20.48;9.52;;;21.90;99.90;;;;;;5013396;28;20049;-51
2023/07/04 04:40:32;;;;;;;19.05;8.75;;;23.40;99.90;;;;;;5013047;28;20048;-51
2023/07/04 04:43:36;;;;;;;16.08;8.13;;;24.50;99.90;;;;;;5012684;28;20057;-51
2023/07/04 04:46:44;;;;;;;17.73;8.30;;;25.30;99.90;;;;;;5001012;28;20045;-51
2023/07/04 04:49:48;;;;;;;15.73;7.97;;;25.60;99.90;;;;;;5012491;28;20171;-51
2023/07/04 04:52:53;;;;;;;17.20;7.30;;;25.90;99.90;;;;;;5000666;28;20061;-54
2023/07/04 04:55:57;;;;;;;14.30;7.18;;;26.20;99.90;;;;;;5035783;22;20052;-69
2023/07/04 04:59:01;;;;;;;13.75;6.65;;;26.50;99.90;;;;;;5008343;28;20392;-70
2023/07/04 05:02:05;;;;;;;18.35;6.93;;;27.00;99.90;;;;;;5031939;28;20049;-69
2023/07/04 05:05:08;;;;;;;12.20;7.28;;;26.80;99.90;;;;;;5032805;28;20052;-69
2023/07/04 05:08:13;;;;;;;17.30;8.07;;;27.00;99.90;;;;;;5032954;28;20457;-69
2023/07/04 05:11:18;;;;;;;16.50;6.60;;;27.40;99.90;;;;;;5032026;28;20052;-69
2023/07/04 05:14:22;;;;;;;15.52;7.63;;;27.90;99.90;;;;;;5033457;28;20048;-69
2023/07/04 05:17:25;;;;;;;13.18;6.90;;;28.30;99.90;;;;;;5033554;28;20056;-69
2023/07/04 05:20:32;;;;;;;14.55;7.88;;;28.50;99.90;;;;;;5033259;28;20091;-69
2023/07/04 05:23:40;;;;;;;15.85;7.70;;;29.00;99.90;;;;;;5032958;28;20056;-68
2023/07/04 05:26:43;;;;;;;14.90;7.15;;;28.90;99.90;;;;;;5033099;28;20044;-69
2023/07/04 05:29:48;;;;;;;15.07;7.07;;;27.40;99.90;;;;;;5032785;28;20048;-69
2023/07/04 05:32:52;;;;;;;13.90;6.45;;;28.40;99.90;;;;;;5031058;28;20048;-69
2023/07/04 05:36:06;;;;;;;12.68;6.50;;;29.60;99.90;;;;;;5031919;28;20036;-69
2023/07/04 05:39:10;;;;;;;15.25;7.18;;;29.50;99.90;;;;;;5031909;28;20052;-68
2023/07/04 05:42:14;;;;;;;14.10;7.82;;;29.20;99.90;;;;;;5018705;28;20044;-68
2023/07/04 05:45:18;;;;;;;14.90;8.88;;;30.10;99.90;;;;;;5031208;28;20480;-69
2023/07/04 05:48:22;;;;;;;20.27;9.40;;;29.60;99.90;;;;;;5031835;28;20037;-68
2023/07/04 05:51:26;;;;;;;19.45;9.23;;;30.50;99.90;;;;;;5018495;28;20045;-69
2023/07/04 05:54:30;;;;;;;14.85;8.27;;;28.60;99.90;;;;;;5031002;28;20032;-69
2023/07/04 05:57:34;;;;;;;17.35;8.20;;;28.20;99.90;;;;;;5031392;28;20041;-69
2023/07/04 06:00:38;;;;;;;13.98;7.28;;;29.80;99.90;;;;;;5031233;28;20045;-69
2023/07/04 06:03:46;;;;;;;13.63;7.05;;;30.20;99.90;;;;;;5031001;28;20045;-69
2023/07/04 06:06:52;;;;;;;15.68;6.80;;;30.00;99.90;;;;;;5025361;28;20040;-69
2023/07/04 06:09:56;;;;;;;14.10;5.57;;;29.80;99.90;;;;;;5024476;28;20048;-69
2023/07/04 06:13:00;;;;;;;14.23;6.68;;;29.90;99.90;;;;;;5030083;28;20049;-70
2023/07/04 06:16:05;;;;;;;10.27;5.90;;;28.90;99.90;;;;;;5031402;28;20117;-69
2023/07/04 06:19:08;;;;;;;14.40;6.10;;;30.60;99.90;;;;;;5011558;28;20056;-70
2023/07/04 06:22:12;;;;;;;12.07;5.85;;;31.60;99.90;;;;;;5025051;28;20048;-69
2023/07/04 06:25:16;;;;;;;13.77;6.22;;;31.90;99.90;;;;;;5031085;28;20048;-69
2023/07/04 06:28:20;;;;;;;14.82;5.85;;;32.30;99.90;;;;;;5031189;28;20056;-70
2023/07/04 06:31:25;;;;;;;8.80;5.20;;;32.80;99.90;;;;;;5029450;28;20087;-70
2023/07/04 06:34:29;;;;;;;14.68;6.03;;;33.10;99.90;;;;;;5020101;28;20052;-70
2023/07/04 06:37:33;;;;;;;16.08;5.80;;;33.80;99.90;;;;;;5025727;28;20048;-69
2023/07/04 06:40:37;;;;;;;11.95;5.65;;;34.90;99.90;;;;;;5027077;28;20040;-70
2023/07/04 06:43:44;;;;;;;15.23;5.47;;;35.20;99.90;;;;;;5022399;28;20389;-69
2023/07/04 06:46:48;;;;;;;9.98;4.20;;;34.80;99.40;;;;;;5028185;28;20044;-69
2023/07/04 06:49:52;;;;;;;11.57;4.90;;;34.30;99.60;;;;;;5019761;28;20046;-72
2023/07/04 06:52:56;;;;;;;10.85;5.45;;;34.30;99.90;;;;;;5025058;28;20048;-69
2023/07/04 06:56:12;;;;;;;15.00;5.45;;;33.70;99.90;;;;;;5025516;28;20538;-70
2023/07/04 06:59:16;;;;;;;11.93;5.47;;;31.80;99.90;;;;;;5028386;28;20052;-69
2023/07/04 07:02:20;;;;;;;9.20;5.55;;;29.80;99.90;;;;;;5023946;28;20053;-69
2023/07/04 07:05:24;;;;;;;11.65;5.35;;;30.30;99.90;;;;;;5029094;28;20040;-69
2023/07/04 07:08:29;;;;;;;12.65;4.93;;;31.70;99.90;;;;;;5025216;28;20060;-70
2023/07/04 07:11:33;;;;;;;10.95;5.63;;;32.90;99.90;;;;;;5026818;28;20581;-70
2023/07/04 07:14:38;;;;;;;10.45;5.43;;;33.80;99.90;;;;;;5024501;28;20033;-70
2023/07/04 07:17:42;;;;;;;12.52;5.15;;;33.50;99.80;;;;;;5030823;28;20511;-69
2023/07/04 07:20:46;;;;;;;12.07;5.28;;;34.40;99.90;;;;;;5025875;28;20041;-69
2023/07/04 07:23:51;;;;;;;12.73;6.20;;;31.00;99.90;;;;;;5027865;28;20064;-70
2023/07/04 07:26:56;;;;;;;7.60;4.80;;;29.90;99.90;;;;;;5026272;28;20052;-69
2023/07/04 07:30:00;;;;;;;11.30;5.00;;;31.90;99.90;;;;;;5024668;28;20041;-70
2023/07/04 07:33:04;;;;;;;10.68;5.40;;;31.70;99.90;;;;;;5020579;28;20048;-69
2023/07/04 07:36:16;;;;;;;9.13;4.90;;;33.60;99.90;;;;;;5028120;28;20044;-70
2023/07/04 07:39:20;;;;;;;6.72;4.10;;;34.80;98.90;;;;;;5028439;28;20503;-70
2023/07/04 07:42:24;;;;;;;5.88;3.50;;;34.90;98.00;;;;;;5025892;28;20056;-70
2023/07/04 07:45:29;;;;;;;7.00;3.20;;;36.00;96.30;;;;;;5017207;28;20040;-70
2023/07/04 07:48:33;;;;;;;6.43;3.13;;;36.70;94.80;;;;;;5029819;28;20484;-70
2023/07/04 07:51:37;;;;;;;7.40;2.95;;;36.20;95.00;;;;;;5027010;28;20636;-70
2023/07/04 07:54:41;;;;;;;6.32;3.00;;;37.30;94.40;;;;;;5023821;28;20052;-70
2023/07/04 07:57:45;;;;;;;4.78;3.00;;;38.30;93.40;;;;;;5022226;28;20048;-70
2023/07/04 08:00:51;;;;;;;4.35;2.80;;;38.50;92.80;;;;;;5024723;28;20052;-70
2023/07/04 08:03:55;;;;;;;4.43;2.97;;;38.80;92.10;;;;;;5022990;28;20052;-70
2023/07/04 08:06:59;;;;;;;3.80;2.80;;;36.20;92.80;;;;;;5029451;28;20503;-71
2023/07/04 08:10:04;;;;;;;4.53;3.00;;;36.50;93.40;;;;;;5022984;28;20056;-71
2023/07/04 08:13:09;;;;;;;3.97;2.90;;;37.90;92.80;;;;;;5028024;28;20040;-69
2023/07/04 08:16:19;;;;;;;3.05;2.22;;;35.50;94.10;;;;;;5009559;28;20052;-71
2023/07/04 08:19:24;;;;;;;5.38;3.08;;;37.70;92.60;;;;;;5027569;28;20045;-70
2023/07/04 08:22:28;;;;;;;4.70;3.08;;;38.80;91.90;;;;;;5032619;28;20049;-71
2023/07/04 08:25:38;;;;;;;4.35;2.53;;;39.60;91.10;;;;;;5013329;28;20045;-69
2023/07/04 08:28:42;;;;;;;;;;;40.70;91.00;;;;;;5031498;28;20049;-69
2023/07/04 08:31:46;;;;;;;8.07;3.05;;;41.80;90.00;;;;;;5032170;28;19916;-67
2023/07/04 08:34:49;;;;;;;5.45;3.33;;;41.50;89.80;;;;;;5023035;28;20036;-68
2023/07/04 08:37:53;;;;;;;4.57;2.97;;;41.30;89.60;;;;;;5028288;28;20052;-72
2023/07/04 08:40:58;;;;;;;5.15;3.15;;;37.70;89.30;;;;;;5030085;28;20056;-70
2023/07/04 08:44:08;;;;;;;5.03;3.15;;;36.30;92.30;;;;;;5029712;28;20056;-71
2023/07/04 08:47:15;;;;;;;5.60;2.47;;;37.20;91.30;;;;;;5023970;28;20048;-70
2023/07/04 08:50:31;;;;;;;5.32;3.50;;;38.90;90.70;;;;;;5014876;28;20048;-71
2023/07/04 08:53:37;;;;;;;6.07;3.40;;;40.30;89.60;;;;;;5026608;28;20036;-69
2023/07/04 08:56:41;;;;;;;8.02;4.30;;;42.30;88.50;;;;;;5033348;28;20088;-69
2023/07/04 08:59:51;;;;;;;5.45;3.60;;;43.20;87.30;;;;;;5027797;28;20040;-70
2023/07/04 09:03:13;;;;;;;7.82;4.05;;;43.90;85.60;;;;;;5024216;28;20048;-68
2023/07/04 09:06:40;;;;;;;7.10;4.35;;;44.00;84.80;;;;;;5013543;28;20056;-68
2023/07/04 09:09:43;;;;;;;8.13;4.20;;;40.10;87.30;;;;;;5019149;28;20064;-71
2023/07/04 09:12:48;;;;;;;8.88;4.32;;;39.20;90.00;;;;;;5024338;28;20044;-70
2023/07/04 09:15:55;;;;;;;8.10;4.15;;;41.50;87.70;;;;;;5025770;28;20056;-70
2023/07/04 09:19:03;;;;;;;7.75;4.35;;;43.40;84.30;;;;;;5027479;28;20052;-69
2023/07/04 09:22:08;;;;;;;7.55;4.18;;;43.90;84.70;;;;;;5023356;28;20377;-69
2023/07/04 09:25:13;;;;;;;7.18;4.00;;;42.90;84.40;;;;;;5027599;28;20045;-68
2023/07/04 09:28:17;;;;;;;7.88;4.07;;;42.50;84.60;;;;;;5026776;28;21387;-69
2023/07/04 09:31:31;;;;;;;5.78;4.18;;;42.80;85.10;;;;;;5027228;28;20041;-70
2023/07/04 09:34:51;;;;;;;6.30;4.38;;;43.20;82.90;;;;;;5029866;28;20048;-70
2023/07/04 09:37:58;;;;;;;14.95;4.45;;;45.60;83.10;;;;;;5027544;28;20052;-70
2023/07/04 09:41:02;;;;;;;7.18;3.75;;;47.40;80.80;;;;;;5026763;28;20056;-70
2023/07/04 09:44:12;;;;;;;6.55;4.80;;;48.20;79.20;;;;;;5026294;28;20040;-70
2023/07/04 09:47:28;;;;;;;7.97;4.20;;;47.90;77.70;;;;;;5030255;28;20049;-68
2023/07/04 09:50:34;;;;;;;7.47;4.07;;;46.50;77.70;;;;;;5024594;28;20041;-71
2023/07/04 09:53:38;;;;;;;6.90;4.53;;;45.20;79.00;;;;;;5027216;28;20045;-68
2023/07/04 09:56:42;;;;;;;6.72;4.25;;;42.60;79.40;;;;;;5028306;28;20052;-71
2023/07/04 09:59:47;;;;;;;6.28;4.13;;;41.00;83.10;;;;;;5025315;28;20041;-69
2023/07/04 10:03:04;;;;;;;8.98;4.60;;;43.20;82.60;;;;;;5028327;28;20052;-70
2023/07/04 10:06:10;;;;;;;7.93;3.95;;;44.50;81.60;;;;;;5030687;28;20507;-68
2023/07/04 10:09:20;;;;;;;5.35;4.07;;;45.00;79.80;;;;;;5018117;28;20045;-68
2023/07/04 10:12:27;;;;;;;6.18;3.80;;;45.60;78.60;;;;;;5008934;28;20038;-69
2023/07/04 10:15:40;;;;;;;6.65;4.45;;;46.10;76.60;;;;;;5027345;28;20055;-70
2023/07/04 10:18:44;;;;;;;8.60;3.50;;;47.10;76.30;;;;;;5023688;28;20117;-70
2023/07/04 10:21:53;;;;;;;6.60;4.05;;;45.80;75.40;;;;;;5028089;28;20044;-70
2023/07/04 10:24:58;;;;;;;6.68;4.20;;;46.20;75.60;;;;;;5028013;28;20045;-69
2023/07/04 10:28:15;;;;;;;6.35;4.35;;;46.60;76.50;;;;;;5024671;28;20832;-69
2023/07/04 10:31:21;;;;;;;9.63;4.05;;;45.00;78.20;;;;;;5029058;28;20052;-68
2023/07/04 10:34:26;;;;;;;9.02;4.10;;;46.00;77.00;;;;;;5026035;28;20372;-69
2023/07/04 10:37:36;;;;;;;6.63;4.07;;;45.60;77.40;;;;;;5022876;28;20040;-68
2023/07/04 10:40:43;;;;;;;7.85;3.90;;;45.50;76.40;;;;;;5025670;28;20048;-68
2023/07/04 10:43:54;;;;;;;5.47;3.78;;;44.70;75.00;;;;;;5029121;28;20392;-68
2023/07/04 10:47:05;;;;;;;6.03;3.80;;;45.30;76.40;;;;;;5026004;28;20387;-68
2023/07/04 10:50:44;;;;;;;7.38;3.97;;;46.00;76.20;;;;;;5028624;28;20033;-69
2023/07/04 10:53:49;;;;;;;5.07;3.45;;;46.60;73.30;;;;;;5025142;28;20048;-69
2023/07/04 10:57:00;;;;;;;6.32;3.53;;;46.90;73.20;;;;;;5031035;28;20048;-68
2023/07/04 11:00:22;;;;;;;5.80;3.92;;;45.60;74.10;;;;;;5035278;28;20057;-68
2023/07/04 11:03:44;;;;;;;5.63;3.33;;;45.30;74.10;;;;;;5022909;28;20060;-68
2023/07/04 11:07:03;;;;;;;5.28;3.88;;;44.60;72.70;;;;;;5025247;28;20052;-68
2023/07/04 11:10:09;;;;;;;5.70;4.20;;;43.50;78.50;;;;;;5041227;28;20372;-68
2023/07/04 11:13:18;;;;;;;4.72;3.88;;;44.40;77.20;;;;;;5028093;28;20495;-67
2023/07/04 11:16:28;;;;;;;6.30;3.80;;;43.90;74.10;;;;;;5029983;28;20044;-67
2023/07/04 11:19:36;;;;;;;6.28;3.50;;;44.00;74.10;;;;;;5037478;28;20044;-67
2023/07/04 11:23:00;;;;;;;5.63;3.92;;;42.00;73.30;;;;;;5033998;28;20044;-70
2023/07/04 11:26:07;;;;;;;6.85;4.03;;;39.40;76.30;;;;;;5037638;28;20060;-68
2023/07/04 11:29:18;;;;;;;6.35;3.70;;;40.10;76.80;;;;;;5038483;28;20391;-69
2023/07/04 11:32:37;;;;;;;9.18;4.20;;;41.20;75.90;;;;;;5025239;28;20044;-70
2023/07/04 11:35:42;;;;;;;7.47;4.25;;;42.20;76.80;;;;;;5034249;28;20060;-69
2023/07/04 11:38:52;;;;;;;6.50;4.03;;;39.00;77.00;;;;;;5040363;28;20036;-69
2023/07/04 11:41:57;;;;;;;5.72;3.90;;;36.90;80.60;;;;;;5030718;28;20048;-69
2023/07/04 11:45:06;;;;;;;5.93;4.22;;;38.90;80.50;;;;;;5025815;28;20399;-69
2023/07/04 11:48:18;;;;;;;7.28;3.42;;;40.00;78.90;;;;;;5027821;28;20056;-69
2023/07/04 11:51:24;;;;;;;6.28;3.88;;;41.40;76.90;;;;;;5012744;28;20036;-69
2023/07/04 11:54:30;;;;;;;5.32;3.92;;;41.50;75.50;;;;;;5022649;28;20540;-69
2023/07/04 11:58:08;;;;;;;6.18;4.15;;;41.10;77.30;;;;;;5025160;28;20044;-73
2023/07/04 12:01:14;;;;;;;6.22;4.15;;;41.20;78.00;;;;;;5020589;28;20052;-66
2023/07/04 12:04:38;;;;;;;10.70;4.30;;;38.00;77.70;;;;;;5042956;28;20506;-69
2023/07/04 12:07:48;;;;;;;6.70;3.92;;;37.80;78.60;;;;;;5021726;28;20048;-71
2023/07/04 12:10:56;;;;;;;5.15;3.92;;;39.10;79.50;;;;;;5027866;28;20044;-69
2023/07/04 12:14:01;;;;;;;6.10;3.80;;;40.40;79.20;;;;;;5026463;28;20048;-70
2023/07/04 12:17:10;;;;;;;4.65;3.97;;;39.80;76.90;;;;;;5013072;28;20041;-72
2023/07/04 12:20:17;;;;;;;5.72;3.78;;;39.40;78.20;;;;;;5023417;28;20041;-69
2023/07/04 12:23:22;;;;;;;5.57;4.05;;;35.90;80.20;;;;;;5029123;28;20494;-70
2023/07/04 12:26:30;;;;;;;4.68;3.45;;;37.40;81.00;;;;;;5022833;28;20391;-70
2023/07/04 12:29:43;;;;;;;5.25;3.70;;;38.80;79.70;;;;;;5030879;28;20040;-69
2023/07/04 12:32:52;;;;;;;5.22;3.55;;;39.60;77.90;;;;;;5027809;28;20040;-70
2023/07/04 12:36:05;;;;;;;7.13;4.10;;;40.20;76.90;;;;;;5028584;28;20048;-70
2023/07/04 12:39:14;;;;;;;7.95;4.68;;;40.10;78.80;;;;;;5027866;28;20048;-70
2023/07/04 12:42:29;;;;;;;7.65;4.82;;;39.20;79.90;;;;;;5025454;28;20121;-69
2023/07/04 12:45:33;;;;;;;6.68;4.20;;;37.40;84.00;;;;;;5034772;28;20044;-70
2023/07/04 12:48:38;;;;;;;7.68;4.47;;;36.40;85.10;;;;;;5036039;28;20159;-69
2023/07/04 12:51:44;;;;;;;5.90;4.10;;;36.20;84.40;;;;;;5040434;28;20044;-69
2023/07/04 12:54:49;;;;;;;9.27;4.47;;;36.90;82.40;;;;;;5032306;28;20350;-69
2023/07/04 12:57:54;;;;;;;7.93;4.05;;;37.30;85.00;;;;;;5029058;28;20048;-70
2023/07/04 13:01:03;;;;;;;8.77;4.57;;;38.20;84.30;;;;;;5035222;28;20049;-68
2023/07/04 13:04:10;;;;;;;9.60;4.65;;;36.90;84.80;;;;;;5032974;28;20396;-70
2023/07/04 13:07:20;;;;;;;9.32;5.30;;;35.40;85.00;;;;;;5032568;28;20032;-70
2023/07/04 13:10:29;;;;;;;8.02;4.60;;;34.10;88.60;;;;;;5037535;28;20503;-68
2023/07/04 13:13:41;;;;;;;8.43;4.95;;;34.30;90.30;;;;;;5036399;28;20036;-69
2023/07/04 13:16:45;;;;;;;15.00;5.25;;;34.20;88.10;;;;;;5034479;28;20040;-73
2023/07/04 13:19:50;;;;;;;8.13;4.70;;;35.40;88.00;;;;;;5025236;28;20045;-69
2023/07/04 13:22:54;;;;;;;9.00;4.78;;;36.00;86.10;;;;;;5034990;28;20048;-70
2023/07/04 13:25:58;;;;;;;8.25;4.60;;;36.60;85.80;;;;;;5037856;28;20056;-70
2023/07/04 13:29:19;;;;;;;8.25;4.50;;;37.60;83.50;;;;;;5037358;28;20044;-69
2023/07/04 13:32:26;;;;;;;6.32;4.28;;;37.60;84.20;;;;;;5017862;28;20041;-69
2023/07/04 13:35:37;;;;;;;12.07;5.18;;;36.90;85.60;;;;;;5038109;28;20411;-69
2023/07/04 13:38:42;;;;;;;8.73;4.72;;;35.00;86.50;;;;;;5043200;28;20080;-69
2023/07/04 13:41:48;;;;;;;7.82;4.72;;;34.80;90.00;;;;;;5040505;28;20129;-68
2023/07/04 13:44:52;;;;;;;10.05;5.00;;;35.50;87.20;;;;;;5019887;28;20043;-69
2023/07/04 13:47:56;;;;;;;10.02;4.85;;;35.90;88.40;;;;;;5043016;28;20043;-70
2023/07/04 13:51:00;;;;;;;9.60;5.07;;;36.10;85.60;;;;;;5031183;28;20040;-70
2023/07/04 13:54:05;;;;;;;6.05;4.40;;;33.20;87.60;;;;;;5012652;28;20511;-69
2023/07/04 13:57:09;;;;;;;11.57;5.20;;;33.30;90.00;;;;;;5031314;28;20499;-69
2023/07/04 14:00:13;;;;;;;9.82;4.72;;;34.00;90.10;;;;;;5021689;28;20037;-69
2023/07/04 14:03:17;;;;;;;12.38;5.80;;;33.60;86.10;;;;;;5032114;28;20035;-70
2023/07/04 14:06:22;;;;;;;6.60;4.70;;;33.00;90.80;;;;;;5028754;28;20037;-68
2023/07/04 14:09:26;;;;;;;5.60;3.95;;;33.80;90.80;;;;;;5027091;28;20036;-72
2023/07/04 14:12:29;;;;;;;11.50;4.80;;;34.60;87.90;;;;;;5022329;28;20064;-69
2023/07/04 14:15:34;;;;;;;11.73;5.15;;;35.10;87.80;;;;;;5024244;28;20044;-71
2023/07/04 14:18:38;;;;;;;8.20;4.78;;;35.10;87.20;;;;;;5011691;28;20037;-69
2023/07/04 14:21:42;;;;;;;9.73;4.90;;;35.00;88.10;;;;;;5031818;28;20562;-69
2023/07/04 14:24:47;;;;;;;8.57;4.65;;;34.60;89.60;;;;;;5031562;28;20531;-68
2023/07/04 14:27:50;;;;;;;10.98;5.38;;;34.30;89.20;;;;;;5035185;28;20048;-69
2023/07/04 14:30:56;;;;;;;10.35;4.97;;;34.10;90.40;;;;;;5032729;28;20037;-69
2023/07/04 14:34:01;;;;;;;8.60;4.63;;;33.80;90.50;;;;;;5036876;28;20423;-69
2023/07/04 14:37:05;;;;;;;7.18;4.78;;;33.60;90.90;;;;;;5038499;28;20502;-69
2023/07/04 14:40:09;;;;;;;10.40;5.43;;;33.20;90.80;;;;;;5030871;28;20052;-69
2023/07/04 14:43:13;;;;;;;7.78;4.50;;;32.60;90.10;;;;;;5030690;28;20053;-69
2023/07/04 14:46:17;;;;;;;12.60;5.10;;;32.80;89.80;;;;;;5034482;28;20636;-69
2023/07/04 14:49:22;;;;;;;7.47;4.60;;;33.00;90.30;;;;;;5048335;28;20040;-70
2023/07/04 14:52:26;;;;;;;11.02;5.35;;;33.20;88.90;;;;;;5024301;28;20384;-69
2023/07/04 14:55:30;;;;;;;10.23;4.93;;;33.60;89.20;;;;;;5032296;28;20044;-68
2023/07/04 14:58:35;;;;;;;10.32;6.00;;;33.20;90.20;;;;;;5032724;28;20527;-68
2023/07/04 15:01:41;;;;;;;6.88;4.90;;;33.20;92.70;;;;;;5033210;28;20049;-69
2023/07/04 15:04:45;;;;;;;7.30;5.28;;;33.30;91.50;;;;;;5029756;28;20044;-68
2023/07/04 15:07:49;;;;;;;8.50;5.30;;;33.40;92.00;;;;;;5032049;28;20044;-68
2023/07/04 15:10:54;;;;;;;10.60;5.68;;;33.40;91.50;;;;;;5031243;28;20070;-69
2023/07/04 15:14:00;;;;;;;11.30;5.72;;;33.60;92.00;;;;;;5024464;28;20048;-69
2023/07/04 15:17:04;;;;;;;6.90;5.15;;;33.50;91.60;;;;;;5035245;28;20120;-68
2023/07/04 15:20:09;;;;;;;9.23;5.78;;;33.50;91.20;;;;;;5042746;28;20526;-69
2023/07/04 15:23:13;;;;;;;7.90;4.90;;;33.20;91.30;;;;;;5050589;28;20048;-68
2023/07/04 15:26:19;;;;;;;9.32;5.53;;;33.30;91.60;;;;;;5050647;28;20055;-68
2023/07/04 15:29:23;;;;;;;8.27;5.25;;;33.30;92.00;;;;;;5050077;28;20043;-69
2023/07/04 15:32:28;;;;;;;9.85;5.32;;;32.90;91.60;;;;;;5050549;28;20052;-70
2023/07/04 15:35:32;;;;;;;11.68;5.35;;;32.40;91.90;;;;;;5050405;28;20052;-69
2023/07/04 15:38:36;;;;;;;12.77;6.07;;;32.00;93.90;;;;;;5038300;28;20048;-69
2023/07/04 15:41:40;;;;;;;7.55;5.10;;;32.30;93.60;;;;;;5050355;28;20048;-68
2023/07/04 15:44:44;;;;;;;8.02;5.18;;;32.30;92.80;;;;;;5038120;28;20044;-68
2023/07/04 15:47:48;;;;;;;10.52;5.85;;;32.10;92.70;;;;;;5038322;28;20052;-68
2023/07/04 15:50:55;;;;;;;10.27;6.10;;;32.30;93.30;;;;;;5050606;28;20495;-68
2023/07/04 15:53:59;;;;;;;10.55;5.80;;;32.20;93.30;;;;;;5050859;28;20387;-68
2023/07/04 15:57:03;;;;;;;11.48;6.20;;;32.20;93.40;;;;;;5050738;28;20506;-68
2023/07/04 16:00:09;;;;;;;13.93;6.38;;;32.20;93.80;;;;;;5050260;28;20514;-71
2023/07/04 16:03:14;;;;;;;14.55;6.72;;;32.20;93.50;;;;;;5050666;28;20400;-68